createdAt,value
2018-11-21T00:01:47.092Z,100.00
2018-11-21T00:04:20.373Z,100.00
2018-11-21T00:06:57.362Z,100.00
2018-11-21T00:09:41.834Z,100.00
2018-11-21T00:12:15.699Z,100.00
2018-11-21T00:14:46.075Z,100.00
2018-11-21T00:17:16.360Z,100.00
2018-11-21T00:19:46.825Z,100.00
2018-11-21T00:22:17.415Z,100.00
2018-11-21T00:24:47.787Z,100.00
2018-11-21T00:27:18.260Z,100.00
2018-11-21T00:29:48.562Z,100.00
2018-11-21T00:32:22.592Z,100.00
2018-11-21T00:34:54.143Z,100.00
2018-11-21T00:37:25.090Z,100.00
2018-11-21T00:39:55.853Z,100.00
2018-11-21T00:42:26.104Z,100.00
2018-11-21T00:44:56.505Z,100.00
2018-11-21T00:47:26.659Z,100.00
2018-11-21T00:49:56.879Z,100.00
2018-11-21T00:52:27.155Z,100.00
2018-11-21T00:54:57.556Z,100.00
2018-11-21T00:57:27.896Z,100.00
2018-11-21T00:59:58.393Z,100.00
2018-11-21T01:02:28.864Z,100.00
2018-11-21T01:04:59.212Z,100.00
2018-11-21T01:07:29.583Z,100.00
2018-11-21T01:10:00.479Z,100.00
2018-11-21T01:12:30.747Z,100.00
2018-11-21T01:15:01.032Z,100.00
2018-11-21T01:17:31.339Z,100.00
2018-11-21T01:20:01.728Z,100.00
2018-11-21T01:22:32.410Z,100.00
2018-11-21T01:25:02.829Z,100.00
2018-11-21T01:27:33.302Z,100.00
2018-11-21T01:30:03.602Z,100.00
2018-11-21T01:32:33.982Z,100.00
2018-11-21T01:35:04.205Z,100.00
2018-11-21T01:37:34.609Z,100.00
2018-11-21T01:40:04.977Z,100.00
2018-11-21T01:42:35.535Z,100.00
2018-11-21T01:45:06.235Z,100.00
2018-11-21T01:47:36.442Z,100.00
2018-11-21T01:50:07.907Z,100.00
2018-11-21T01:52:38.118Z,100.00
2018-11-21T01:55:08.474Z,100.00
2018-11-21T01:57:38.834Z,100.00
2018-11-21T02:00:13.506Z,100.00
2018-11-21T02:02:43.847Z,100.00
2018-11-21T02:05:14.152Z,100.00
2018-11-21T02:07:44.642Z,100.00
2018-11-21T02:10:15.191Z,100.00
2018-11-21T02:12:45.739Z,100.00
2018-11-21T02:15:16.166Z,100.00
2018-11-21T02:17:46.519Z,100.00
2018-11-21T02:20:16.776Z,100.00
2018-11-21T02:22:47.087Z,100.00
2018-11-21T02:25:17.289Z,100.00
2018-11-21T02:27:47.646Z,100.00
2018-11-21T02:30:17.953Z,100.00
2018-11-21T02:32:48.345Z,100.00
2018-11-21T02:35:18.666Z,100.00
2018-11-21T02:37:49.283Z,100.00
2018-11-21T02:40:19.678Z,100.00
2018-11-21T02:42:50.000Z,100.00
2018-11-21T02:45:20.234Z,100.00
2018-11-21T02:47:50.496Z,100.00
2018-11-21T02:50:20.736Z,100.00
2018-11-21T02:52:51.155Z,100.00
2018-11-21T02:55:21.426Z,100.00
2018-11-21T02:57:52.157Z,100.00
2018-11-21T03:00:25.388Z,100.00
2018-11-21T03:02:58.045Z,100.00
2018-11-21T03:05:28.457Z,100.00
2018-11-21T03:08:00.332Z,100.00
2018-11-21T03:10:30.808Z,100.00
2018-11-21T03:13:01.316Z,100.00
2018-11-21T03:15:34.201Z,100.00
2018-11-21T03:18:04.418Z,100.00
2018-11-21T03:20:34.686Z,100.00
2018-11-21T03:23:04.952Z,100.00
2018-11-21T03:25:35.235Z,100.00
2018-11-21T03:28:05.499Z,100.00
2018-11-21T03:30:35.874Z,100.00
2018-11-21T03:33:06.469Z,100.00
2018-11-21T03:35:37.012Z,100.00
2018-11-21T03:38:07.521Z,100.00
2018-11-21T03:40:40.178Z,100.00
2018-11-21T03:43:10.446Z,100.00
2018-11-21T03:45:40.766Z,100.00
2018-11-21T03:48:11.607Z,100.00
2018-11-21T03:50:41.841Z,100.00
2018-11-21T03:53:12.238Z,100.00
2018-11-21T03:55:42.799Z,100.00
2018-11-21T03:58:15.415Z,100.00
2018-11-21T04:00:45.746Z,100.00
2018-11-21T04:03:16.041Z,100.00
2018-11-21T04:05:46.271Z,100.00
2018-11-21T04:08:16.586Z,100.00
2018-11-21T04:10:46.898Z,100.00
2018-11-21T04:13:17.260Z,100.00
2018-11-21T04:15:47.536Z,100.00
2018-11-21T04:18:17.856Z,100.00
2018-11-21T04:20:48.444Z,100.00
2018-11-21T04:23:18.705Z,100.00
2018-11-21T04:25:49.041Z,100.00
2018-11-21T04:28:19.352Z,100.00
2018-11-21T04:30:49.648Z,100.00
2018-11-21T04:33:19.943Z,100.00
2018-11-21T04:35:50.775Z,100.00
2018-11-21T04:38:21.026Z,100.00
2018-11-21T04:40:51.369Z,100.00
2018-11-21T04:43:21.822Z,100.00
2018-11-21T04:45:52.267Z,100.00
2018-11-21T04:48:22.564Z,100.00
2018-11-21T04:50:52.889Z,100.00
2018-11-21T04:53:23.861Z,100.00
2018-11-21T04:55:54.239Z,100.00
2018-11-21T04:58:24.638Z,100.00
2018-11-21T05:00:54.882Z,100.00
2018-11-21T05:03:25.223Z,100.00
2018-11-21T05:05:55.552Z,100.00
2018-11-21T05:08:25.807Z,100.00
2018-11-21T05:10:56.105Z,100.00
2018-11-21T05:13:26.825Z,100.00
2018-11-21T05:15:57.093Z,100.00
2018-11-21T05:18:27.446Z,100.00
2018-11-21T05:20:58.158Z,100.00
2018-11-21T05:23:28.574Z,100.00
2018-11-21T05:25:58.849Z,100.00
2018-11-21T05:28:29.323Z,100.00
2018-11-21T05:30:59.550Z,100.00
2018-11-21T05:33:29.886Z,100.00
2018-11-21T05:36:00.067Z,100.00
2018-11-21T05:38:30.209Z,100.00
2018-11-21T05:41:00.913Z,100.00
2018-11-21T05:43:31.145Z,100.00
2018-11-21T05:46:01.514Z,100.00
2018-11-21T05:48:31.800Z,100.00
2018-11-21T05:51:02.099Z,100.00
2018-11-21T05:53:32.445Z,100.00
2018-11-21T05:56:02.722Z,100.00
2018-11-21T05:58:32.943Z,100.00
2018-11-21T06:01:03.232Z,100.00
2018-11-21T06:03:33.682Z,100.00
2018-11-21T06:06:09.754Z,100.00
2018-11-21T06:08:34.437Z,100.00
2018-11-21T06:11:04.988Z,100.00
2018-11-21T06:13:35.576Z,100.00
2018-11-21T06:16:07.323Z,100.00
2018-11-21T06:18:38.075Z,100.00
2018-11-21T06:21:08.781Z,100.00
2018-11-21T06:23:39.244Z,100.00
2018-11-21T06:26:10.070Z,100.00
2018-11-21T06:28:41.298Z,100.00
2018-11-21T06:31:11.495Z,100.00
2018-11-21T06:33:42.552Z,100.00
2018-11-21T06:36:13.153Z,100.00
2018-11-21T06:38:43.890Z,100.00
2018-11-21T06:41:14.555Z,100.00
2018-11-21T06:43:46.879Z,100.00
2018-11-21T06:46:17.664Z,100.00
2018-11-21T06:48:48.285Z,100.00
2018-11-21T06:51:19.548Z,100.00
2018-11-21T06:53:50.163Z,100.00
2018-11-21T06:56:21.925Z,100.00
2018-11-21T06:58:55.224Z,100.00
2018-11-21T07:01:23.873Z,100.00
2018-11-21T07:03:55.539Z,100.00
2018-11-21T07:06:26.250Z,100.00
2018-11-21T07:08:56.963Z,100.00
2018-11-21T07:11:27.025Z,96.43
2018-11-21T07:13:57.286Z,88.12
2018-11-21T07:16:27.541Z,81.84
2018-11-21T07:18:57.848Z,82.96
2018-11-21T07:21:28.446Z,89.04
2018-11-21T07:23:58.785Z,93.34
2018-11-21T07:26:29.262Z,99.66
2018-11-21T07:28:59.713Z,100.00
2018-11-21T07:31:30.101Z,100.00
2018-11-21T07:34:00.611Z,100.00
2018-11-21T07:36:31.042Z,100.00
2018-11-21T07:39:01.304Z,100.00
2018-11-21T07:41:31.687Z,100.00
2018-11-21T07:44:01.931Z,100.00
2018-11-21T07:46:32.740Z,100.00
2018-11-21T07:49:03.185Z,100.00
2018-11-21T07:51:33.976Z,100.00
2018-11-21T07:54:05.016Z,100.00
2018-11-21T07:57:27.342Z,100.00
2018-11-21T08:00:46.840Z,100.00
2018-11-21T08:03:18.083Z,100.00
2018-11-21T08:05:53.538Z,100.00
2018-11-21T08:09:01.033Z,100.00
2018-11-21T08:12:08.612Z,100.00
2018-11-21T08:15:19.277Z,100.00
2018-11-21T08:18:12.974Z,100.00
2018-11-21T08:21:04.428Z,100.00
2018-11-21T08:24:12.052Z,100.00
2018-11-21T08:26:49.311Z,81.49
2018-11-21T08:29:19.949Z,88.44
2018-11-21T08:31:50.826Z,93.18
2018-11-21T08:34:21.836Z,94.81
2018-11-21T08:36:52.360Z,98.40
2018-11-21T08:39:22.794Z,96.24
2018-11-21T08:41:53.365Z,97.07
2018-11-21T08:44:23.835Z,97.20
2018-11-21T08:46:54.355Z,98.71
2018-11-21T08:49:24.629Z,100.00
2018-11-21T08:51:55.016Z,100.00
2018-11-21T08:54:25.675Z,100.00
2018-11-21T08:56:56.119Z,100.00
2018-11-21T08:59:26.803Z,100.00
2018-11-21T09:01:57.277Z,100.00
2018-11-21T09:04:27.737Z,100.00
2018-11-21T09:06:58.283Z,100.00
2018-11-21T09:09:28.680Z,100.00
2018-11-21T09:11:59.153Z,100.00
2018-11-21T09:14:30.416Z,100.00
2018-11-21T09:17:01.047Z,100.00
2018-11-21T09:19:32.289Z,100.00
2018-11-21T09:22:02.805Z,100.00
2018-11-21T09:24:33.199Z,100.00
2018-11-21T09:27:04.774Z,100.00
2018-11-21T09:29:35.401Z,100.00
2018-11-21T09:32:06.103Z,100.00
2018-11-21T09:34:37.059Z,100.00
2018-11-21T09:37:07.487Z,100.00
2018-11-21T09:39:38.109Z,100.00
2018-11-21T09:42:08.713Z,100.00
2018-11-21T09:44:40.831Z,100.00
2018-11-21T09:47:11.331Z,100.00
2018-11-21T09:49:41.598Z,100.00
2018-11-21T09:52:12.129Z,100.00
2018-11-21T09:54:42.562Z,100.00
2018-11-21T09:57:13.519Z,100.00
2018-11-21T09:59:44.074Z,100.00
2018-11-21T10:03:11.684Z,100.00
2018-11-21T10:05:42.517Z,100.00
2018-11-21T10:08:48.916Z,100.00
2018-11-21T10:11:20.995Z,100.00
2018-11-21T10:13:52.930Z,100.00
2018-11-21T10:16:27.242Z,100.00
2018-11-21T10:19:00.104Z,100.00
2018-11-21T10:21:33.386Z,100.00
2018-11-21T10:24:05.160Z,100.00
2018-11-21T10:26:36.914Z,100.00
2018-11-21T10:29:10.058Z,100.00
2018-11-21T10:31:41.688Z,100.00
2018-11-21T10:34:13.589Z,100.00
2018-11-21T10:36:45.907Z,98.82
2018-11-21T10:39:17.409Z,100.00
2018-11-21T10:41:49.231Z,100.00
2018-11-21T10:44:21.017Z,100.00
2018-11-21T10:46:51.616Z,100.00
2018-11-21T10:49:22.077Z,100.00
2018-11-21T10:51:52.768Z,100.00
2018-11-21T10:54:23.526Z,100.00
2018-11-21T10:56:54.031Z,100.00
2018-11-21T10:59:24.440Z,100.00
2018-11-21T11:02:12.783Z,100.00
2018-11-21T11:04:50.237Z,100.00
2018-11-21T11:07:39.662Z,100.00
2018-11-21T11:10:36.769Z,94.01
2018-11-21T11:13:22.993Z,90.54
2018-11-21T11:16:24.271Z,91.17
2018-11-21T11:19:14.007Z,89.07
2018-11-21T11:22:02.319Z,91.28
2018-11-21T11:24:51.731Z,90.96
2018-11-21T11:27:39.885Z,93.06
2018-11-21T11:30:36.340Z,92.19
2018-11-21T11:33:40.960Z,90.10
2018-11-21T11:36:33.526Z,85.85
2018-11-21T11:39:32.518Z,84.87
2018-11-21T11:42:30.864Z,82.88
2018-11-21T11:45:30.150Z,79.92
2018-11-21T11:48:18.494Z,81.40
2018-11-21T11:51:26.027Z,83.81
2018-11-21T11:54:21.372Z,83.64
2018-11-21T11:57:10.528Z,87.87
2018-11-21T11:59:58.996Z,86.50
2018-11-21T12:02:47.734Z,85.40
2018-11-21T12:05:49.125Z,83.01
2018-11-21T12:08:37.525Z,77.67
2018-11-21T12:11:35.279Z,66.50
2018-11-21T12:14:23.637Z,62.44
2018-11-21T12:17:12.353Z,62.47
2018-11-21T12:20:04.627Z,64.77
2018-11-21T12:23:05.623Z,68.69
2018-11-21T12:25:58.252Z,71.07
2018-11-21T12:28:42.934Z,72.11
2018-11-21T12:31:25.212Z,73.01
2018-11-21T12:34:30.146Z,75.99
2018-11-21T12:37:30.372Z,77.76
2018-11-21T12:40:15.054Z,78.98
2018-11-21T12:43:05.311Z,77.28
2018-11-21T12:45:58.716Z,76.38
2018-11-21T12:48:48.540Z,76.03
2018-11-21T12:51:36.336Z,76.33
2018-11-21T12:54:30.645Z,76.28
2018-11-21T12:57:22.888Z,78.15
2018-11-21T13:00:12.269Z,78.21
2018-11-21T13:03:08.471Z,78.26
2018-11-21T13:06:01.230Z,78.74
2018-11-21T13:09:03.465Z,79.88
2018-11-21T13:11:58.557Z,81.19
2018-11-21T13:14:46.698Z,81.53
2018-11-21T13:17:35.243Z,81.45
2018-11-21T13:20:43.411Z,81.74
2018-11-21T13:23:31.385Z,82.23
2018-11-21T13:26:19.719Z,83.15
2018-11-21T13:29:07.554Z,84.81
2018-11-21T13:31:56.991Z,85.84
2018-11-21T13:34:46.503Z,85.37
2018-11-21T13:37:39.338Z,82.92
2018-11-21T13:40:42.496Z,80.73
2018-11-21T13:43:32.514Z,80.48
2018-11-21T13:46:24.939Z,81.65
2018-11-21T13:49:13.063Z,83.54
2018-11-21T13:52:18.184Z,84.66
2018-11-21T13:54:57.217Z,85.59
2018-11-21T13:57:28.875Z,86.19
2018-11-21T14:00:00.135Z,86.54
2018-11-21T14:02:30.882Z,87.27
2018-11-21T14:05:02.824Z,88.02
2018-11-21T14:07:34.263Z,88.24
2018-11-21T14:10:05.780Z,88.76
2018-11-21T14:12:36.543Z,89.46
2018-11-21T14:15:09.156Z,89.95
2018-11-21T14:17:39.553Z,90.80
2018-11-21T14:20:13.163Z,91.53
2018-11-21T14:22:44.087Z,92.47
2018-11-21T14:25:14.471Z,93.37
2018-11-21T14:27:45.900Z,93.91
2018-11-21T14:30:17.573Z,94.23
2018-11-21T14:32:49.613Z,94.41
2018-11-21T14:35:20.129Z,94.83
2018-11-21T14:37:51.966Z,95.40
2018-11-21T14:40:22.610Z,96.23
2018-11-21T14:42:53.548Z,97.06
2018-11-21T14:45:24.575Z,98.03
2018-11-21T14:47:58.179Z,98.87
2018-11-21T14:50:32.481Z,100.00
2018-11-21T14:53:03.278Z,100.00
2018-11-21T14:55:34.635Z,100.00
2018-11-21T14:58:05.093Z,100.00
2018-11-21T15:00:37.251Z,100.00
2018-11-21T15:03:08.669Z,100.00
2018-11-21T15:05:39.784Z,100.00
2018-11-21T15:08:11.426Z,100.00
2018-11-21T15:10:41.926Z,100.00
2018-11-21T15:13:13.468Z,100.00
2018-11-21T15:15:44.032Z,100.00
2018-11-21T15:18:16.210Z,100.00
2018-11-21T15:20:47.273Z,100.00
2018-11-21T15:23:19.621Z,100.00
2018-11-21T15:25:50.517Z,100.00
2018-11-21T15:28:21.810Z,100.00
2018-11-21T15:30:52.363Z,100.00
2018-11-21T15:33:22.864Z,100.00
2018-11-21T15:35:53.631Z,100.00
2018-11-21T15:38:24.394Z,100.00
2018-11-21T15:40:54.922Z,100.00
2018-11-21T15:43:25.880Z,100.00
2018-11-21T15:45:56.344Z,100.00
2018-11-21T15:48:26.855Z,100.00
2018-11-21T15:50:57.543Z,100.00
2018-11-21T15:53:28.437Z,100.00
2018-11-21T15:55:59.359Z,100.00
2018-11-21T15:58:30.430Z,100.00
2018-11-21T16:01:00.878Z,100.00
2018-11-21T16:03:31.520Z,100.00
2018-11-21T16:06:02.372Z,100.00
2018-11-21T16:08:33.418Z,100.00
2018-11-21T16:11:04.478Z,100.00
2018-11-21T16:13:35.084Z,100.00
2018-11-21T16:16:05.656Z,100.00
2018-11-21T16:18:37.203Z,100.00
2018-11-21T16:21:07.571Z,100.00
2018-11-21T16:23:37.856Z,100.00
2018-11-21T16:26:08.220Z,100.00
2018-11-21T16:28:38.820Z,100.00
2018-11-21T16:31:09.477Z,100.00
2018-11-21T16:33:40.013Z,100.00
2018-11-21T16:36:10.581Z,100.00
2018-11-21T16:38:41.257Z,100.00
2018-11-21T16:41:11.572Z,100.00
2018-11-21T16:43:42.532Z,100.00
2018-11-21T16:46:12.944Z,100.00
2018-11-21T16:48:43.223Z,100.00
2018-11-21T16:51:14.088Z,100.00
2018-11-21T16:53:44.471Z,100.00
2018-11-21T16:56:15.369Z,100.00
2018-11-21T16:58:46.325Z,100.00
2018-11-21T17:01:17.158Z,100.00
2018-11-21T17:03:47.782Z,100.00
2018-11-21T17:06:18.697Z,100.00
